createdAt,value
2019-01-30T00:00:25.114Z,45.73
2019-01-30T00:02:54.762Z,43.83
2019-01-30T00:05:24.470Z,42.87
2019-01-30T00:07:54.229Z,41.80
2019-01-30T00:10:23.948Z,44.60
2019-01-30T00:12:53.704Z,48.80
2019-01-30T00:15:23.589Z,45.73
2019-01-30T00:17:53.251Z,45.37
2019-01-30T00:20:22.876Z,44.00
2019-01-30T00:22:52.610Z,46.80
2019-01-30T00:25:23.943Z,45.17
2019-01-30T00:27:53.706Z,46.33
2019-01-30T00:30:24.593Z,42.10
2019-01-30T00:32:54.296Z,43.93
2019-01-30T00:35:23.918Z,44.10
2019-01-30T00:37:53.596Z,43.37
2019-01-30T00:40:23.712Z,41.47
2019-01-30T00:42:53.322Z,43.20
2019-01-30T00:45:23.256Z,43.27
2019-01-30T00:47:52.962Z,44.67
2019-01-30T00:50:23.265Z,56.70
2019-01-30T00:52:53.107Z,91.23
2019-01-30T00:55:22.858Z,91.03
2019-01-30T00:57:52.478Z,51.00
2019-01-30T01:00:22.970Z,42.60
2019-01-30T01:02:52.817Z,62.33
2019-01-30T01:05:22.721Z,44.77
2019-01-30T01:07:52.702Z,43.93
2019-01-30T01:10:22.688Z,44.53
2019-01-30T01:12:52.548Z,43.73
2019-01-30T01:15:22.210Z,45.23
2019-01-30T01:17:51.813Z,434.50
2019-01-30T01:20:21.635Z,197.20
2019-01-30T01:22:51.484Z,116.67
2019-01-30T01:25:21.216Z,89.73
2019-01-30T01:27:50.806Z,71.27
2019-01-30T01:30:25.395Z,65.57
2019-01-30T01:32:54.416Z,72.13
2019-01-30T01:35:24.112Z,194.10
2019-01-30T01:37:53.880Z,150.13
2019-01-30T01:40:23.706Z,131.07
2019-01-30T01:42:53.334Z,112.80
2019-01-30T01:45:24.264Z,43.97
2019-01-30T01:47:53.960Z,113.40
2019-01-30T01:50:23.695Z,167.10
2019-01-30T01:52:53.479Z,106.77
2019-01-30T01:55:23.091Z,106.00
2019-01-30T01:57:52.747Z,62.23
2019-01-30T02:00:23.023Z,336.50
2019-01-30T02:02:52.924Z,276.63
2019-01-30T02:05:23.362Z,99.40
2019-01-30T02:07:53.306Z,58.23
2019-01-30T02:10:23.832Z,61.23
2019-01-30T02:12:53.732Z,110.53
2019-01-30T02:15:24.091Z,97.63
2019-01-30T02:17:53.773Z,85.33
2019-01-30T02:20:28.712Z,91.27
2019-01-30T02:22:58.422Z,138.87
2019-01-30T02:25:28.126Z,75.00
2019-01-30T02:27:57.862Z,85.77
2019-01-30T02:30:29.261Z,87.13
2019-01-30T02:32:58.973Z,81.93
2019-01-30T02:35:28.633Z,83.30
2019-01-30T02:37:58.325Z,90.10
2019-01-30T02:40:27.923Z,78.67
2019-01-30T02:42:57.579Z,77.90
2019-01-30T02:45:27.515Z,99.87
2019-01-30T02:47:57.152Z,82.47
2019-01-30T02:50:26.978Z,92.73
2019-01-30T02:52:56.581Z,94.50
2019-01-30T02:55:26.177Z,90.13
2019-01-30T02:57:55.855Z,71.53
2019-01-30T03:00:30.134Z,73.70
2019-01-30T03:02:59.897Z,66.07
2019-01-30T03:05:29.915Z,63.40
2019-01-30T03:07:59.691Z,58.53
2019-01-30T03:10:29.432Z,54.37
2019-01-30T03:12:59.062Z,55.07
2019-01-30T03:15:28.787Z,53.17
2019-01-30T03:17:58.463Z,50.77
2019-01-30T03:20:28.200Z,47.23
2019-01-30T03:22:57.783Z,45.67
2019-01-30T03:25:27.622Z,42.53
2019-01-30T03:27:57.212Z,41.40
2019-01-30T03:30:28.832Z,42.33
2019-01-30T03:32:59.667Z,48.03
2019-01-30T03:35:29.476Z,51.63
2019-01-30T03:37:59.061Z,54.97
2019-01-30T03:40:28.794Z,56.17
2019-01-30T03:42:58.425Z,57.40
2019-01-30T03:45:28.228Z,55.83
2019-01-30T03:47:57.968Z,54.53
2019-01-30T03:50:27.584Z,47.40
2019-01-30T03:52:57.186Z,46.43
2019-01-30T03:55:26.952Z,43.20
2019-01-30T03:57:56.552Z,47.37
2019-01-30T04:00:26.896Z,43.60
2019-01-30T04:02:56.678Z,53.23
2019-01-30T04:05:26.298Z,60.27
2019-01-30T04:07:56.029Z,59.53
2019-01-30T04:10:25.893Z,59.23
2019-01-30T04:12:55.475Z,75.77
2019-01-30T04:15:25.092Z,70.87
2019-01-30T04:17:54.777Z,75.37
2019-01-30T04:20:24.690Z,76.47
2019-01-30T04:22:54.335Z,70.40
2019-01-30T04:25:24.060Z,76.27
2019-01-30T04:27:53.687Z,75.27
2019-01-30T04:30:24.641Z,73.20
2019-01-30T04:32:54.598Z,79.63
2019-01-30T04:35:24.297Z,84.57
2019-01-30T04:37:53.872Z,80.33
2019-01-30T04:40:23.735Z,86.80
2019-01-30T04:42:53.438Z,83.10
2019-01-30T04:45:24.564Z,88.60
2019-01-30T04:47:54.262Z,84.50
2019-01-30T04:50:23.955Z,101.87
2019-01-30T04:52:53.580Z,82.23
2019-01-30T04:55:23.219Z,65.53
2019-01-30T04:57:52.824Z,60.50
2019-01-30T05:00:24.179Z,62.40
2019-01-30T05:02:54.114Z,57.37
2019-01-30T05:05:23.716Z,54.10
2019-01-30T05:07:53.420Z,57.57
2019-01-30T05:10:23.089Z,58.83
2019-01-30T05:12:52.718Z,59.70
2019-01-30T05:15:23.303Z,62.00
2019-01-30T05:17:52.986Z,56.80
2019-01-30T05:20:22.739Z,60.43
2019-01-30T05:22:52.448Z,58.90
2019-01-30T05:25:22.248Z,61.20
2019-01-30T05:27:51.854Z,59.97
2019-01-30T05:30:28.156Z,62.70
2019-01-30T05:32:57.772Z,62.97
2019-01-30T05:35:27.465Z,63.33
2019-01-30T05:37:57.429Z,64.23
2019-01-30T05:40:27.026Z,66.37
2019-01-30T05:42:56.649Z,70.57
2019-01-30T05:45:26.298Z,72.60
2019-01-30T05:47:55.883Z,90.73
2019-01-30T05:50:25.589Z,95.80
2019-01-30T05:52:55.446Z,89.40
2019-01-30T05:55:25.038Z,137.00
2019-01-30T05:57:54.648Z,107.97
2019-01-30T06:00:28.518Z,249.50
2019-01-30T06:02:58.105Z,64.83
2019-01-30T06:05:27.886Z,85.43
2019-01-30T06:07:57.608Z,68.97
2019-01-30T06:10:27.212Z,83.30
2019-01-30T06:12:56.808Z,91.67
2019-01-30T06:15:26.756Z,76.13
2019-01-30T06:17:56.363Z,68.70
2019-01-30T06:20:27.220Z,103.73
2019-01-30T06:22:57.345Z,94.57
2019-01-30T06:25:27.162Z,102.77
2019-01-30T06:27:56.741Z,133.23
2019-01-30T06:30:26.693Z,65.67
2019-01-30T06:32:56.397Z,53.53
2019-01-30T06:35:26.002Z,59.63
2019-01-30T06:37:55.682Z,55.80
2019-01-30T06:40:33.280Z,53.83
2019-01-30T06:43:03.033Z,54.47
2019-01-30T06:45:32.813Z,91.23
2019-01-30T06:48:02.440Z,62.40
2019-01-30T06:50:32.147Z,51.83
2019-01-30T06:53:01.721Z,51.00
2019-01-30T06:55:31.619Z,50.13
2019-01-30T06:58:01.329Z,45.20
2019-01-30T07:00:34.138Z,47.80
2019-01-30T07:03:04.871Z,42.50
2019-01-30T07:05:34.519Z,44.23
2019-01-30T07:08:04.899Z,43.37
2019-01-30T07:10:35.041Z,43.57
2019-01-30T07:13:06.926Z,45.70
2019-01-30T07:15:37.379Z,52.53
2019-01-30T07:18:07.577Z,54.67
2019-01-30T07:20:38.058Z,57.33
2019-01-30T07:23:09.101Z,55.10
2019-01-30T07:25:39.343Z,50.93
2019-01-30T07:28:09.864Z,44.30
2019-01-30T07:30:40.791Z,140.30
2019-01-30T07:33:11.462Z,74.97
2019-01-30T07:35:42.738Z,115.57
2019-01-30T07:38:13.218Z,59.87
2019-01-30T07:40:44.964Z,105.33
2019-01-30T07:43:17.659Z,287.07
2019-01-30T07:45:47.284Z,257.80
2019-01-30T07:48:17.777Z,239.37
2019-01-30T07:50:47.604Z,296.67
2019-01-30T07:53:17.367Z,201.30
2019-01-30T07:55:48.607Z,200.10
2019-01-30T07:58:18.892Z,159.50
2019-01-30T08:00:48.881Z,431.50
2019-01-30T08:03:19.361Z,95.73
2019-01-30T08:05:50.177Z,163.33
2019-01-30T08:08:20.585Z,88.90
2019-01-30T08:10:51.069Z,155.63
2019-01-30T08:13:21.339Z,72.70
2019-01-30T08:15:51.286Z,146.23
2019-01-30T08:18:21.895Z,112.90
2019-01-30T08:20:51.559Z,296.97
2019-01-30T08:23:21.432Z,107.63
2019-01-30T08:25:51.289Z,231.57
2019-01-30T08:28:21.252Z,188.97
2019-01-30T08:30:51.038Z,220.17
2019-01-30T08:33:21.619Z,78.77
2019-01-30T08:35:51.461Z,61.70
2019-01-30T08:38:21.241Z,65.93
2019-01-30T08:40:51.015Z,153.60
2019-01-30T08:43:20.687Z,80.57
2019-01-30T08:45:50.484Z,68.03
2019-01-30T08:48:20.842Z,56.50
2019-01-30T08:50:50.918Z,53.63
2019-01-30T08:53:20.945Z,47.50
2019-01-30T08:55:51.167Z,46.33
2019-01-30T08:58:20.922Z,110.17
2019-01-30T09:00:50.842Z,33.70
2019-01-30T09:03:20.600Z,40.03
2019-01-30T09:05:50.655Z,49.43
2019-01-30T09:08:20.523Z,47.40
2019-01-30T09:10:50.720Z,46.23
2019-01-30T09:13:20.649Z,41.10
2019-01-30T09:15:51.002Z,42.83
2019-01-30T09:18:22.614Z,44.23
2019-01-30T09:20:52.240Z,41.87
2019-01-30T09:23:21.921Z,42.50
2019-01-30T09:25:51.589Z,42.53
2019-01-30T09:28:21.206Z,48.40
2019-01-30T09:30:50.844Z,49.87
2019-01-30T09:33:25.915Z,54.33
2019-01-30T09:35:51.812Z,64.50
2019-01-30T09:38:21.453Z,72.00
2019-01-30T09:40:51.103Z,63.50
2019-01-30T09:43:20.708Z,61.10
2019-01-30T09:45:50.376Z,59.07
2019-01-30T09:48:20.050Z,55.27
2019-01-30T09:50:49.665Z,54.07
2019-01-30T09:53:19.331Z,59.07
2019-01-30T09:55:49.113Z,63.70
2019-01-30T09:58:18.947Z,61.13
2019-01-30T10:00:48.806Z,62.03
2019-01-30T10:03:18.552Z,64.13
2019-01-30T10:05:48.161Z,64.23
2019-01-30T10:08:17.803Z,60.53
2019-01-30T10:10:47.452Z,58.03
2019-01-30T10:13:17.097Z,57.87
2019-01-30T10:15:46.836Z,53.13
2019-01-30T10:18:16.894Z,59.13
2019-01-30T10:20:47.862Z,60.30
2019-01-30T10:23:17.502Z,56.37
2019-01-30T10:25:47.260Z,50.13
2019-01-30T10:28:17.259Z,50.33
2019-01-30T10:30:47.696Z,51.47
2019-01-30T10:33:17.353Z,47.63
2019-01-30T10:35:47.295Z,44.77
2019-01-30T10:38:17.252Z,46.97
2019-01-30T10:40:47.280Z,44.57
2019-01-30T10:43:17.363Z,44.50
2019-01-30T10:45:47.114Z,45.23
2019-01-30T10:48:17.034Z,42.53
2019-01-30T10:50:46.874Z,44.67
2019-01-30T10:53:16.742Z,41.07
2019-01-30T10:55:46.607Z,44.90
2019-01-30T10:58:18.116Z,43.43
2019-01-30T11:00:52.693Z,41.33
2019-01-30T11:03:22.534Z,41.17
2019-01-30T11:05:52.549Z,40.40
2019-01-30T11:08:22.320Z,39.00
2019-01-30T11:10:52.193Z,41.33
2019-01-30T11:13:21.944Z,29.57
2019-01-30T11:15:51.861Z,28.67
2019-01-30T11:18:21.954Z,34.30
2019-01-30T11:20:51.917Z,32.33
2019-01-30T11:23:21.684Z,37.23
2019-01-30T11:25:51.601Z,41.37
2019-01-30T11:28:21.328Z,42.30
2019-01-30T11:30:51.111Z,38.33
2019-01-30T11:33:20.826Z,42.63
2019-01-30T11:35:50.640Z,43.90
2019-01-30T11:38:20.660Z,39.37
2019-01-30T11:40:50.616Z,44.13
2019-01-30T11:43:20.542Z,38.27
2019-01-30T11:45:50.568Z,40.30
2019-01-30T11:48:20.418Z,38.17
2019-01-30T11:50:50.150Z,42.63
2019-01-30T11:53:20.050Z,49.67
2019-01-30T11:55:49.799Z,44.07
2019-01-30T11:58:19.503Z,42.77
2019-01-30T12:00:58.501Z,44.00
2019-01-30T12:03:28.314Z,45.40
2019-01-30T12:05:58.123Z,41.97
2019-01-30T12:08:28.169Z,42.93
2019-01-30T12:10:57.991Z,43.60
2019-01-30T12:13:27.938Z,46.83
2019-01-30T12:15:57.720Z,49.70
2019-01-30T12:18:27.453Z,46.97
2019-01-30T12:20:57.230Z,49.77
2019-01-30T12:23:27.137Z,48.17
2019-01-30T12:25:56.898Z,47.70
2019-01-30T12:28:26.657Z,46.87
2019-01-30T12:30:56.448Z,46.23
2019-01-30T12:33:26.210Z,45.20
2019-01-30T12:35:55.959Z,47.37
2019-01-30T12:38:25.738Z,47.07
2019-01-30T12:40:55.467Z,46.87
2019-01-30T12:43:25.193Z,41.27
2019-01-30T12:45:54.984Z,43.63
2019-01-30T12:48:24.771Z,47.40
2019-01-30T12:50:54.886Z,39.77
2019-01-30T12:53:24.743Z,44.57
2019-01-30T12:55:54.548Z,43.50
2019-01-30T12:58:24.294Z,43.77
2019-01-30T13:00:54.160Z,44.33
2019-01-30T13:03:23.931Z,44.20
2019-01-30T13:05:53.706Z,45.43
2019-01-30T13:08:23.587Z,43.00
2019-01-30T13:10:53.318Z,40.40
2019-01-30T13:13:23.037Z,37.63
2019-01-30T13:15:53.015Z,44.57
2019-01-30T13:18:22.960Z,36.47
2019-01-30T13:20:52.672Z,40.67
2019-01-30T13:23:22.572Z,35.53
2019-01-30T13:25:52.431Z,39.97
2019-01-30T13:28:22.340Z,39.53
2019-01-30T13:30:52.294Z,40.90
2019-01-30T13:33:22.267Z,39.03
2019-01-30T13:35:52.013Z,34.17
2019-01-30T13:38:21.939Z,39.10
2019-01-30T13:40:51.775Z,43.07
2019-01-30T13:43:22.129Z,36.40
2019-01-30T13:45:51.913Z,40.80
2019-01-30T13:48:22.423Z,89.77
2019-01-30T13:50:52.162Z,105.47
2019-01-30T13:53:22.247Z,41.13
2019-01-30T13:55:52.136Z,39.73
2019-01-30T13:58:24.044Z,36.97
2019-01-30T14:00:53.837Z,40.50
2019-01-30T14:03:24.172Z,38.80
2019-01-30T14:05:54.026Z,41.23
2019-01-30T14:08:24.064Z,36.97
2019-01-30T14:10:54.436Z,37.77
2019-01-30T14:13:24.160Z,39.67
2019-01-30T14:15:54.032Z,35.33
2019-01-30T14:18:23.820Z,36.43
2019-01-30T14:20:53.525Z,39.10
2019-01-30T14:23:23.357Z,38.03
2019-01-30T14:25:56.936Z,37.90
2019-01-30T14:28:27.251Z,38.70
2019-01-30T14:30:57.143Z,38.87
2019-01-30T14:33:26.928Z,33.63
2019-01-30T14:35:56.743Z,36.40
2019-01-30T14:38:26.964Z,40.60
2019-01-30T14:40:56.731Z,38.30
2019-01-30T14:43:26.471Z,50.40
2019-01-30T14:45:56.289Z,44.40
2019-01-30T14:48:25.975Z,45.60
2019-01-30T14:50:55.929Z,44.57
2019-01-30T14:53:25.706Z,43.63
2019-01-30T14:55:55.548Z,43.20
2019-01-30T14:58:25.301Z,39.77
2019-01-30T15:00:55.311Z,45.03
2019-01-30T15:03:25.021Z,41.57
2019-01-30T15:05:54.827Z,42.10
2019-01-30T15:08:24.572Z,39.27
2019-01-30T15:10:54.392Z,42.07
2019-01-30T15:13:24.187Z,47.73
2019-01-30T15:15:53.903Z,40.03
2019-01-30T15:18:23.650Z,42.67
2019-01-30T15:20:53.520Z,43.40
2019-01-30T15:23:23.232Z,40.50
2019-01-30T15:25:52.982Z,44.47
2019-01-30T15:28:22.769Z,40.60
2019-01-30T15:30:52.585Z,40.17
2019-01-30T15:33:22.306Z,40.20
2019-01-30T15:35:52.108Z,47.90
2019-01-30T15:38:21.947Z,43.73
2019-01-30T15:40:51.908Z,51.13
2019-01-30T15:43:21.986Z,53.37
2019-01-30T15:45:51.811Z,52.40
2019-01-30T15:48:21.643Z,46.53
2019-01-30T15:50:51.616Z,46.10
2019-01-30T15:53:23.126Z,45.63
2019-01-30T15:55:53.062Z,49.13
2019-01-30T15:58:22.955Z,50.47
2019-01-30T16:01:25.661Z,56.10
2019-01-30T16:03:55.523Z,58.77
2019-01-30T16:06:25.327Z,66.50
2019-01-30T16:08:55.184Z,105.60
2019-01-30T16:11:25.047Z,83.53
2019-01-30T16:13:54.884Z,76.10
2019-01-30T16:16:24.818Z,75.30
2019-01-30T16:18:54.646Z,72.63
2019-01-30T16:21:24.362Z,84.33
2019-01-30T16:23:54.105Z,98.63
2019-01-30T16:26:23.958Z,94.80
2019-01-30T16:28:53.689Z,119.33
2019-01-30T16:31:23.503Z,119.63
2019-01-30T16:33:53.376Z,73.07
2019-01-30T16:36:25.159Z,62.20
2019-01-30T16:38:54.527Z,61.20
2019-01-30T16:41:24.300Z,55.27
2019-01-30T16:43:54.151Z,47.47
2019-01-30T16:46:24.021Z,50.40
2019-01-30T16:48:53.835Z,42.27
2019-01-30T16:51:23.907Z,43.87
2019-01-30T16:53:54.205Z,108.87
2019-01-30T16:56:24.395Z,216.47
2019-01-30T16:58:54.202Z,203.80
2019-01-30T17:01:24.035Z,147.03
2019-01-30T17:03:53.821Z,140.90
2019-01-30T17:06:24.552Z,48.70
2019-01-30T17:09:51.306Z,100.63
2019-01-30T17:16:26.424Z,61.53
2019-01-30T17:19:19.712Z,53.60
2019-01-30T17:22:08.747Z,54.10
2019-01-30T17:24:58.025Z,56.37
2019-01-30T17:27:37.723Z,54.27
2019-01-30T17:30:42.473Z,53.37
2019-01-30T17:33:12.262Z,56.47
2019-01-30T17:35:42.951Z,51.30
2019-01-30T17:38:12.944Z,51.10
2019-01-30T17:40:43.548Z,50.30
2019-01-30T17:43:14.442Z,50.13
2019-01-30T17:45:44.062Z,50.23
2019-01-30T17:48:14.935Z,58.53
2019-01-30T17:50:44.710Z,63.80
2019-01-30T17:53:14.331Z,64.13
2019-01-30T17:55:43.962Z,64.63
2019-01-30T17:58:13.668Z,52.80
2019-01-30T18:00:48.356Z,55.20
2019-01-30T18:03:17.977Z,56.67
2019-01-30T18:05:47.788Z,56.90
2019-01-30T18:08:17.584Z,55.13
2019-01-30T18:10:47.199Z,57.43
2019-01-30T18:13:16.917Z,55.07
2019-01-30T18:15:46.690Z,47.10
2019-01-30T18:18:16.267Z,52.00
2019-01-30T18:20:45.983Z,58.17
2019-01-30T18:23:15.840Z,59.93
2019-01-30T18:25:45.429Z,53.67
2019-01-30T18:28:15.154Z,52.77
2019-01-30T18:30:44.816Z,54.77
2019-01-30T18:33:14.545Z,59.90
2019-01-30T18:35:44.241Z,51.33
2019-01-30T18:38:14.347Z,58.97
2019-01-30T18:40:44.023Z,67.97
2019-01-30T18:43:13.793Z,71.87
2019-01-30T18:45:43.449Z,66.67
2019-01-30T18:48:13.048Z,57.90
2019-01-30T18:50:45.611Z,64.50
2019-01-30T18:53:14.141Z,69.73
2019-01-30T18:55:43.754Z,82.03
2019-01-30T18:58:13.511Z,83.03
2019-01-30T19:00:44.415Z,75.60
2019-01-30T19:03:18.398Z,77.23
2019-01-30T19:05:48.405Z,65.13
2019-01-30T19:08:18.270Z,64.57
2019-01-30T19:10:47.928Z,69.87
2019-01-30T19:13:17.761Z,72.40
2019-01-30T19:15:47.572Z,67.00
2019-01-30T19:18:17.645Z,62.87
2019-01-30T19:20:49.100Z,65.03
2019-01-30T19:23:18.888Z,78.50
2019-01-30T19:25:48.626Z,73.00
2019-01-30T19:28:18.401Z,73.80
2019-01-30T19:30:48.083Z,66.57
2019-01-30T19:33:17.785Z,65.30
2019-01-30T19:35:47.513Z,66.40
2019-01-30T19:38:17.258Z,70.13
2019-01-30T19:40:46.889Z,71.67
2019-01-30T19:43:16.632Z,68.87
2019-01-30T19:45:46.246Z,61.37
2019-01-30T19:48:15.947Z,55.43
2019-01-30T19:50:45.648Z,56.17
2019-01-30T19:53:15.454Z,46.17
2019-01-30T19:55:45.240Z,45.73
2019-01-30T19:58:14.931Z,45.70
2019-01-30T20:00:47.093Z,50.00
2019-01-30T20:03:31.194Z,51.90
2019-01-30T20:06:00.372Z,52.43
2019-01-30T20:08:30.143Z,58.93
2019-01-30T20:10:59.920Z,58.03
2019-01-30T20:13:29.718Z,56.50
2019-01-30T20:15:59.414Z,50.27
2019-01-30T20:18:29.401Z,49.60
2019-01-30T20:20:59.061Z,57.43
2019-01-30T20:23:28.677Z,47.87
2019-01-30T20:25:58.441Z,46.23
2019-01-30T20:28:28.139Z,46.37
2019-01-30T20:30:57.811Z,49.33
2019-01-30T20:33:28.147Z,49.47
2019-01-30T20:35:57.759Z,43.30
2019-01-30T20:38:27.385Z,52.37
2019-01-30T20:40:57.039Z,43.87
2019-01-30T20:43:26.660Z,43.30
2019-01-30T20:45:56.310Z,41.60
2019-01-30T20:48:26.044Z,40.33
2019-01-30T20:50:55.671Z,41.87
2019-01-30T20:53:25.284Z,37.87
2019-01-30T20:55:54.934Z,43.77
2019-01-30T20:58:24.552Z,41.90
2019-01-30T21:00:54.214Z,39.83
2019-01-30T21:03:23.940Z,44.60
2019-01-30T21:05:53.554Z,39.40
2019-01-30T21:08:23.167Z,40.83
2019-01-30T21:10:52.854Z,38.93
2019-01-30T21:13:22.601Z,39.13
2019-01-30T21:15:52.294Z,38.53
2019-01-30T21:18:21.988Z,40.73
2019-01-30T21:20:51.617Z,35.67
2019-01-30T21:23:21.230Z,35.23
2019-01-30T21:25:50.983Z,35.27
2019-01-30T21:28:20.593Z,38.07
2019-01-30T21:30:50.203Z,36.77
2019-01-30T21:33:19.894Z,38.40
2019-01-30T21:35:49.680Z,38.13
2019-01-30T21:38:19.276Z,34.53
2019-01-30T21:40:48.945Z,36.27
2019-01-30T21:43:18.639Z,32.53
2019-01-30T21:45:48.237Z,30.33
2019-01-30T21:48:18.021Z,33.90
2019-01-30T21:50:47.623Z,35.87
2019-01-30T21:53:17.227Z,35.00
2019-01-30T21:55:46.909Z,32.03
2019-01-30T21:58:16.484Z,35.80
2019-01-30T22:00:46.151Z,34.63
2019-01-30T22:03:15.822Z,36.07
2019-01-30T22:05:45.523Z,36.10
2019-01-30T22:08:15.114Z,32.23
2019-01-30T22:10:44.951Z,32.43
2019-01-30T22:13:14.721Z,29.97
2019-01-30T22:15:44.341Z,33.17
2019-01-30T22:18:14.295Z,31.33
2019-01-30T22:20:43.965Z,33.30
2019-01-30T22:23:13.581Z,31.13
2019-01-30T22:25:43.401Z,30.57
2019-01-30T22:28:13.096Z,31.80
2019-01-30T22:30:42.686Z,34.93
2019-01-30T22:33:12.399Z,42.40
2019-01-30T22:35:41.998Z,43.37
2019-01-30T22:38:12.916Z,40.60
2019-01-30T22:40:42.704Z,42.50
2019-01-30T22:43:12.324Z,37.30
2019-01-30T22:45:41.952Z,38.47
2019-01-30T22:48:11.767Z,41.03
2019-01-30T22:50:41.404Z,40.33
2019-01-30T22:53:11.166Z,44.03
2019-01-30T22:55:40.894Z,45.10
2019-01-30T22:58:10.508Z,44.10
2019-01-30T23:01:45.072Z,43.87
2019-01-30T23:04:40.827Z,45.30
2019-01-30T23:07:24.701Z,43.47
2019-01-30T23:10:30.915Z,42.80
2019-01-30T23:13:33.353Z,43.87
2019-01-30T23:16:43.952Z,39.80
2019-01-30T23:19:53.143Z,35.87
2019-01-30T23:22:49.286Z,29.87
2019-01-30T23:25:49.602Z,31.77
2019-01-30T23:28:58.239Z,29.63
2019-01-30T23:31:58.419Z,26.40
2019-01-30T23:35:07.047Z,23.57
2019-01-30T23:38:18.322Z,22.03
2019-01-30T23:41:18.367Z,21.43
2019-01-30T23:44:05.642Z,18.93
2019-01-30T23:47:23.862Z,20.67
2019-01-30T23:50:18.002Z,16.10
2019-01-30T23:53:10.950Z,15.50
2019-01-30T23:56:07.574Z,16.83
2019-01-30T23:59:02.339Z,16.27
